Главная страница
METAR-TAF:

METAR-TAF

Аэропорты :

Мадрид, Испания

Барахас

широта: 40-27N, долгота: 003-33W, высота над уровнем моря: 609 м

Текущие метеонаблюдения

Эта сводка был подготовлена 28 минут назад, в 12:00 UTC
Ветер 2 Узел от западный
Температура 11°C
Влажность 71%
Давление 1029 hPa
Видимость 10 км и более
Нет облачности ниже 1500 м, и нет кучево-дождевой облачности

METAR: LEMD 221200Z 28002KT CAVOK 11/06 Q1029 NOSIG

Время: 13:28 (12:28 UTC)

Прогноз

Эта сводка был подготовлена 1 час и 28 минут назад, в 11:00 UTC
Прогноз действительный с 22-го 12 UTC до 23-го 18 UTC
Ветер 3 Узел переменных направлений
Видимость 10 км и более
Нет облачности ниже 1500 м, и нет кучево-дождевой облачности
Вероятность 40% :
временами
С 22-го 22 UTC до 23-го 08 UTC
Ветер 6 Узел от северо-северо-восточный

TAF: LEMD 221100Z 2212/2318 VRB03KT CAVOK TX17/2315Z TN02/2307Z PROB40 TEMPO 2222/2308 02006KT

Метеонаблюдения и прогнозы для более 4000 аэропортов (сводки METAR и TAF).

Имеющиеся станции представлены на карте желтыми и красными точками.

Чтобы увидеть название станции, наведите на нее мышь.

Затем щелкните, чтобы увидеть метеонаблюдения и метеопрогнозы.

Управление картой: чтобы увеличить масштаб, щелкните зеленые кнопки с черным крестиком; чтобы уменьшить масштаб, щелкните зеленую кнопку с тире; для просмотра соседних карт щелкайте зеленые стрелки.


METAR-TAF: